Sacred Heart, Minnesota
Current Conditions -  °F | °C
As of 11:12 AM on Saturday 25 Oct 2014 (Local Time) from KGDB Reporting Station
Clear Clear  
Wind Chill: 57°   Ceiling: Unl
Heat Index: 57°   Visibility: 10mi
Dew Point: 35°   Wind: 9mph
Humidity: 43%   Direction: 300°WNW
Pressure: 30.15"   Gusts: NA
Location:  44.79°N, 95.35°W
Report Text: KGDB 251612Z AUTO 30008KT 10SM CLR 14/02 A3015 RMK AO2 T01410017
Loading
Personal Weather Stations






























Interactive Weather Map
Tropical Storm Tracking
New forecast layout! Learn more

10-Day Weather Forecast

Advertisements
Track Severe Weather on mobile